Time;durP1;ratioP1;P1;durP2;ratioP2;P2;SDS_P1;SDS_P2;PMS_P1;PMS_P2;Temp;Humidity;BMP_temperature;BMP_pressure;BME280_temperature;BME280_humidity;BME280_pressure;Samples;Min_cycle;Max_cycle;Signal;HPM_P1;HPM_P2
2024/02/29 00:00:09;;;;;;;17.40;8.30;;;2.80;99.90;;;;;;4986965;28;20445;-65
2024/02/29 00:02:37;;;;;;;21.00;10.67;;;2.70;99.90;;;;;;4992938;28;20860;-65
2024/02/29 00:05:04;;;;;;;26.23;11.53;;;2.60;99.90;;;;;;4990568;28;20448;-65
2024/02/29 00:07:31;;;;;;;20.60;9.97;;;2.60;99.90;;;;;;4993243;28;20577;-64
2024/02/29 00:10:01;;;;;;;20.10;9.13;;;2.60;99.90;;;;;;4989979;28;20444;-64
2024/02/29 00:12:28;;;;;;;27.30;11.67;;;2.60;99.90;;;;;;4992106;28;20468;-65
2024/02/29 00:14:57;;;;;;;24.07;10.17;;;2.60;99.90;;;;;;4993160;28;20859;-65
2024/02/29 00:17:24;;;;;;;18.43;9.77;;;2.70;99.90;;;;;;4993731;28;20912;-66
2024/02/29 00:19:51;;;;;;;24.67;10.33;;;2.70;99.90;;;;;;4991071;28;20504;-64
2024/02/29 00:22:18;;;;;;;16.10;9.70;;;2.60;99.90;;;;;;4993335;28;20575;-64
2024/02/29 00:24:45;;;;;;;16.73;9.17;;;2.60;99.90;;;;;;4992511;28;20451;-65
2024/02/29 00:27:13;;;;;;;21.80;10.30;;;2.50;99.90;;;;;;4997630;28;20480;-64
2024/02/29 00:29:39;;;;;;;20.03;9.53;;;2.50;99.90;;;;;;4994269;28;20824;-64
2024/02/29 00:32:07;;;;;;;23.03;9.73;;;2.50;99.90;;;;;;4993830;28;20524;-64
2024/02/29 00:34:34;;;;;;;19.80;9.77;;;2.50;99.90;;;;;;4990074;28;20465;-64
2024/02/29 00:37:01;;;;;;;22.17;11.13;;;2.40;99.90;;;;;;4994057;28;20453;-65
2024/02/29 00:39:27;;;;;;;20.93;10.37;;;2.50;99.90;;;;;;4992748;28;20547;-65
2024/02/29 00:41:54;;;;;;;22.50;10.07;;;2.50;99.90;;;;;;4994098;28;20527;-65
2024/02/29 00:44:22;;;;;;;28.57;12.00;;;2.50;99.90;;;;;;4994967;28;20471;-65
2024/02/29 00:46:52;;;;;;;23.43;9.70;;;2.50;99.90;;;;;;4993898;28;20829;-65
2024/02/29 00:49:19;;;;;;;19.60;9.27;;;2.40;99.90;;;;;;4993132;28;20523;-64
2024/02/29 00:51:46;;;;;;;25.90;9.17;;;2.40;99.90;;;;;;4993733;28;20460;-65
2024/02/29 00:54:12;;;;;;;20.03;10.27;;;2.40;99.90;;;;;;4993682;28;20479;-65
2024/02/29 00:56:39;;;;;;;26.37;10.00;;;2.40;99.90;;;;;;4993327;28;20627;-65
2024/02/29 00:59:06;;;;;;;24.47;11.23;;;2.40;99.90;;;;;;4985541;28;20444;-65
2024/02/29 01:01:34;;;;;;;23.13;10.10;;;2.40;99.90;;;;;;4992419;28;20628;-65
2024/02/29 01:04:01;;;;;;;21.50;9.77;;;2.30;99.90;;;;;;4993212;28;20549;-65
2024/02/29 01:06:28;;;;;;;22.83;12.07;;;2.30;99.90;;;;;;4993496;28;20534;-64
2024/02/29 01:08:55;;;;;;;30.77;11.43;;;2.40;99.90;;;;;;4993730;28;20468;-64
2024/02/29 01:11:22;;;;;;;21.47;11.17;;;2.40;99.90;;;;;;4994403;28;20528;-65
2024/02/29 01:13:49;;;;;;;22.83;10.90;;;2.40;99.90;;;;;;4995354;28;20516;-65
2024/02/29 01:16:16;;;;;;;20.20;10.50;;;2.40;99.90;;;;;;4996389;28;20531;-64
2024/02/29 01:18:47;;;;;;;23.30;10.70;;;2.40;99.90;;;;;;4995850;28;20440;-66
2024/02/29 01:21:14;;;;;;;24.83;11.13;;;2.40;99.90;;;;;;4994954;28;20523;-66
2024/02/29 01:23:41;;;;;;;33.63;14.47;;;2.30;99.90;;;;;;4996142;28;20956;-65
2024/02/29 01:26:08;;;;;;;21.90;9.63;;;2.30;99.90;;;;;;4997655;28;20481;-65
2024/02/29 01:28:35;;;;;;;23.53;11.33;;;2.30;99.90;;;;;;4994699;28;20524;-65
2024/02/29 01:31:02;;;;;;;19.67;10.40;;;2.30;99.90;;;;;;4993985;28;20540;-65
2024/02/29 01:33:32;;;;;;;27.07;12.17;;;2.30;99.90;;;;;;4993811;28;20464;-65
2024/02/29 01:36:00;;;;;;;29.93;10.10;;;2.60;99.90;;;;;;4994626;28;20464;-65
2024/02/29 01:38:27;;;;;;;30.13;11.70;;;2.30;99.90;;;;;;4996730;28;20809;-66
2024/02/29 01:40:54;;;;;;;27.83;12.17;;;2.30;99.90;;;;;;4993809;28;20466;-65
2024/02/29 01:43:21;;;;;;;25.60;11.80;;;2.20;99.90;;;;;;4996380;28;20459;-64
2024/02/29 01:45:58;;;;;;;25.67;11.90;;;2.20;99.90;;;;;;4996392;28;20448;-65
2024/02/29 01:48:25;;;;;;;24.00;12.20;;;2.20;99.90;;;;;;4993934;28;20450;-66
2024/02/29 01:50:52;;;;;;;23.93;10.47;;;2.20;99.90;;;;;;4994117;28;20485;-64
2024/02/29 01:53:21;;;;;;;24.10;11.23;;;2.30;99.90;;;;;;4994715;28;20527;-66
2024/02/29 01:55:51;;;;;;;26.63;13.60;;;2.30;99.90;;;;;;4996019;28;20952;-65
2024/02/29 02:01:28;;;;;;;18.80;9.77;;;2.20;99.90;;;;;;4979462;28;20480;-68
2024/02/29 02:03:55;;;;;;;25.90;10.97;;;2.20;99.90;;;;;;4992512;28;20482;-65
2024/02/29 02:06:22;;;;;;;28.73;11.63;;;2.20;99.90;;;;;;4995531;28;20575;-65
2024/02/29 02:08:50;;;;;;;18.90;10.50;;;2.20;99.90;;;;;;4995390;28;20896;-64
2024/02/29 02:11:17;;;;;;;28.27;11.80;;;2.20;99.90;;;;;;4993399;28;20447;-66
2024/02/29 02:13:44;;;;;;;28.73;11.27;;;2.20;99.90;;;;;;4992570;28;20501;-64
2024/02/29 02:16:12;;;;;;;29.13;12.03;;;2.20;99.90;;;;;;4997048;28;20506;-65
2024/02/29 02:18:39;;;;;;;29.83;14.40;;;2.30;99.90;;;;;;4993995;28;20459;-64
2024/02/29 02:21:07;;;;;;;30.80;12.87;;;2.20;99.90;;;;;;4995256;28;20448;-65
2024/02/29 02:23:34;;;;;;;22.57;10.20;;;2.20;99.90;;;;;;4995286;28;20492;-65
2024/02/29 02:26:01;;;;;;;21.47;10.70;;;2.20;99.90;;;;;;4995107;28;21378;-65
2024/02/29 02:28:29;;;;;;;22.40;11.57;;;2.20;99.90;;;;;;4993678;28;20972;-65
2024/02/29 02:30:59;;;;;;;22.93;11.57;;;2.10;99.90;;;;;;4993984;28;20864;-65
2024/02/29 02:33:26;;;;;;;25.47;11.97;;;2.10;99.90;;;;;;4993889;28;20468;-64
2024/02/29 02:35:55;;;;;;;27.77;11.23;;;2.10;99.90;;;;;;4992944;28;20495;-66
2024/02/29 02:38:24;;;;;;;25.13;10.47;;;2.20;99.90;;;;;;4991420;28;21019;-65
2024/02/29 02:40:51;;;;;;;32.07;12.07;;;2.20;99.90;;;;;;4992241;28;20448;-65
2024/02/29 02:43:17;;;;;;;27.37;12.80;;;2.20;99.90;;;;;;4991900;28;20467;-65
2024/02/29 02:45:44;;;;;;;24.47;11.43;;;2.20;99.90;;;;;;4989516;28;20471;-65
2024/02/29 02:48:11;;;;;;;26.43;10.63;;;2.10;99.90;;;;;;4991469;28;20575;-65
2024/02/29 02:50:38;;;;;;;29.70;9.73;;;2.10;99.90;;;;;;4991660;28;20448;-65
2024/02/29 02:53:08;;;;;;;27.33;11.77;;;2.10;99.90;;;;;;4991215;28;20499;-64
2024/02/29 02:55:36;;;;;;;29.47;12.33;;;2.00;99.90;;;;;;4991839;28;20531;-64
2024/02/29 02:58:06;;;;;;;25.27;11.27;;;2.10;99.90;;;;;;4990506;28;20883;-65
2024/02/29 03:00:33;;;;;;;25.43;12.60;;;2.00;99.90;;;;;;4991364;28;20974;-65
2024/02/29 03:03:01;;;;;;;29.83;14.50;;;2.10;99.90;;;;;;4991484;28;20483;-65
2024/02/29 03:05:28;;;;;;;22.70;12.60;;;2.00;99.90;;;;;;4991790;28;20531;-65
2024/02/29 03:07:55;;;;;;;29.93;12.37;;;1.90;99.90;;;;;;4991142;28;21058;-65
2024/02/29 03:10:22;;;;;;;25.03;13.53;;;2.00;99.90;;;;;;4991811;28;20472;-65
2024/02/29 03:12:53;;;;;;;23.80;10.40;;;2.10;99.90;;;;;;4991116;28;20558;-64
2024/02/29 03:15:20;;;;;;;27.27;14.43;;;2.00;99.90;;;;;;4994399;28;20507;-64
2024/02/29 03:17:47;;;;;;;33.87;14.67;;;2.00;99.90;;;;;;4995139;28;20524;-65
2024/02/29 03:20:14;;;;;;;29.17;12.70;;;2.00;99.90;;;;;;4986687;28;20460;-65
2024/02/29 03:22:41;;;;;;;35.60;14.67;;;2.00;99.90;;;;;;4995342;28;20472;-65
2024/02/29 03:25:10;;;;;;;21.23;11.40;;;1.90;99.90;;;;;;4995550;28;20445;-65
2024/02/29 03:27:37;;;;;;;22.83;10.43;;;2.00;99.90;;;;;;4995439;28;20492;-65
2024/02/29 03:30:06;;;;;;;28.20;14.87;;;2.00;99.90;;;;;;4995044;28;20440;-65
2024/02/29 03:32:33;;;;;;;32.73;14.47;;;2.00;99.90;;;;;;4994916;28;20508;-64
2024/02/29 03:35:01;;;;;;;33.27;14.07;;;2.00;99.90;;;;;;4995409;28;20940;-65
2024/02/29 03:37:28;;;;;;;25.90;11.17;;;1.90;99.90;;;;;;4994387;28;20471;-65
2024/02/29 03:39:55;;;;;;;27.77;12.50;;;2.00;99.90;;;;;;4994664;28;20992;-64
2024/02/29 03:42:22;;;;;;;30.07;12.90;;;1.90;99.90;;;;;;4994876;28;20467;-65
2024/02/29 03:44:49;;;;;;;24.47;13.67;;;1.90;99.90;;;;;;4995039;28;21004;-65
2024/02/29 03:47:18;;;;;;;26.03;12.57;;;1.90;99.90;;;;;;4994821;28;20558;-66
2024/02/29 03:49:45;;;;;;;31.90;13.77;;;2.00;99.90;;;;;;4995042;28;20928;-65
2024/02/29 03:52:11;;;;;;;27.13;11.30;;;1.80;99.90;;;;;;4994649;28;20503;-65
2024/02/29 03:54:38;;;;;;;23.50;11.13;;;1.80;99.90;;;;;;4994788;28;20493;-64
2024/02/29 03:57:06;;;;;;;27.23;11.37;;;1.70;99.90;;;;;;4993609;28;20547;-65
2024/02/29 03:59:32;;;;;;;25.77;12.33;;;1.70;99.90;;;;;;4994551;28;21007;-65
2024/02/29 04:02:00;;;;;;;24.53;11.20;;;1.70;99.90;;;;;;4994591;28;20888;-65
2024/02/29 04:04:30;;;;;;;29.10;13.50;;;1.70;99.90;;;;;;4994623;28;20865;-65
2024/02/29 04:06:57;;;;;;;33.87;12.70;;;1.60;99.90;;;;;;4994261;28;20574;-65
2024/02/29 04:09:24;;;;;;;29.07;13.10;;;1.60;99.90;;;;;;4994739;28;20478;-65
2024/02/29 04:11:51;;;;;;;32.20;13.63;;;1.70;99.90;;;;;;4994201;28;20452;-65
2024/02/29 04:14:18;;;;;;;32.17;14.40;;;1.70;99.90;;;;;;4993682;28;20448;-65
2024/02/29 04:16:45;;;;;;;26.60;11.63;;;1.70;99.90;;;;;;4994162;28;21009;-65
2024/02/29 04:19:12;;;;;;;31.73;12.13;;;1.70;99.90;;;;;;4994591;28;20783;-65
2024/02/29 04:21:45;;;;;;;26.23;12.20;;;1.70;99.90;;;;;;4993901;28;20864;-65
2024/02/29 04:24:12;;;;;;;32.37;12.50;;;1.70;99.90;;;;;;4994217;28;20440;-65
2024/02/29 04:26:39;;;;;;;27.10;13.20;;;1.70;99.90;;;;;;4993699;28;20583;-65
2024/02/29 04:29:06;;;;;;;28.93;14.97;;;1.90;99.90;;;;;;4994105;28;20515;-65
2024/02/29 04:31:33;;;;;;;32.63;16.90;;;1.70;99.90;;;;;;4994223;28;20947;-65
2024/02/29 04:34:00;;;;;;;32.47;14.73;;;1.70;99.90;;;;;;4992487;28;20940;-66
2024/02/29 04:36:27;;;;;;;32.60;15.17;;;1.60;99.90;;;;;;4993929;28;20462;-65
2024/02/29 04:38:56;;;;;;;27.63;13.63;;;1.60;99.90;;;;;;4993842;28;20445;-65
2024/02/29 04:41:22;;;;;;;39.43;16.27;;;1.60;99.90;;;;;;4994037;28;20440;-65
2024/02/29 04:43:50;;;;;;;36.63;17.53;;;1.50;99.90;;;;;;4993327;28;20598;-65
2024/02/29 04:46:17;;;;;;;33.37;15.47;;;1.50;99.90;;;;;;4993771;28;20462;-66
2024/02/29 04:48:43;;;;;;;35.00;16.27;;;1.50;99.90;;;;;;4994096;28;20484;-65
2024/02/29 04:51:10;;;;;;;31.37;14.93;;;1.50;99.90;;;;;;4993003;28;20466;-65
2024/02/29 04:53:37;;;;;;;29.60;15.30;;;1.50;99.90;;;;;;4993085;28;20820;-65
2024/02/29 04:56:08;;;;;;;32.00;15.17;;;1.50;99.90;;;;;;4993643;28;20443;-65
2024/02/29 04:58:35;;;;;;;33.03;14.20;;;1.50;99.90;;;;;;4993855;28;20533;-65
2024/02/29 05:01:02;;;;;;;34.57;15.47;;;1.60;99.90;;;;;;4993094;28;20452;-65
2024/02/29 05:03:29;;;;;;;32.47;15.37;;;1.50;99.90;;;;;;4993355;28;20468;-65
2024/02/29 05:05:56;;;;;;;36.07;14.20;;;1.60;99.90;;;;;;4993695;28;20448;-65
2024/02/29 05:08:23;;;;;;;34.87;14.40;;;1.60;99.90;;;;;;4992306;28;20794;-65
2024/02/29 05:10:50;;;;;;;29.33;12.30;;;1.60;99.90;;;;;;4993720;28;20527;-65
2024/02/29 05:13:20;;;;;;;36.13;14.00;;;1.50;99.90;;;;;;4993148;28;20804;-64
2024/02/29 05:15:46;;;;;;;39.03;15.40;;;1.50;99.90;;;;;;4993183;28;20513;-64
2024/02/29 05:18:14;;;;;;;26.70;12.97;;;1.50;99.90;;;;;;4993089;28;20544;-65
2024/02/29 05:20:41;;;;;;;33.23;13.60;;;1.50;99.90;;;;;;4993045;28;20470;-65
2024/02/29 05:23:08;;;;;;;45.70;18.07;;;1.60;99.90;;;;;;4993004;28;20547;-65
2024/02/29 05:25:35;;;;;;;34.60;14.20;;;1.60;99.90;;;;;;4992070;28;20956;-65
2024/02/29 05:28:02;;;;;;;36.63;16.60;;;1.60;99.90;;;;;;4992595;28;20514;-64
2024/02/29 05:30:31;;;;;;;29.90;13.60;;;1.70;99.90;;;;;;4993136;28;20432;-65
2024/02/29 05:32:58;;;;;;;35.37;13.30;;;1.50;99.90;;;;;;4992527;28;20471;-67
2024/02/29 05:35:25;;;;;;;28.43;12.07;;;1.50;99.90;;;;;;4992905;28;20543;-65
2024/02/29 05:37:52;;;;;;;36.90;13.43;;;1.60;99.90;;;;;;4992196;28;20452;-65
2024/02/29 05:40:19;;;;;;;29.67;12.73;;;1.60;99.90;;;;;;4992709;28;20522;-65
2024/02/29 05:42:46;;;;;;;28.73;13.50;;;1.60;99.90;;;;;;4992237;28;20468;-64
2024/02/29 05:45:17;;;;;;;37.37;14.33;;;1.60;99.90;;;;;;4991656;28;20468;-66
2024/02/29 05:47:45;;;;;;;33.10;15.43;;;1.70;99.90;;;;;;4992662;28;20855;-65
2024/02/29 05:50:12;;;;;;;38.57;16.50;;;1.60;99.90;;;;;;4992961;28;20483;-65
2024/02/29 05:52:40;;;;;;;43.70;18.40;;;1.60;99.90;;;;;;4992144;28;20464;-65
2024/02/29 05:55:07;;;;;;;34.43;16.60;;;1.60;99.90;;;;;;4992372;28;20479;-66
2024/02/29 05:57:34;;;;;;;34.67;15.90;;;1.70;99.90;;;;;;4992775;28;20543;-65
2024/02/29 06:00:03;;;;;;;32.17;13.00;;;1.60;99.90;;;;;;4992307;28;20452;-65
2024/02/29 06:02:30;;;;;;;35.83;15.70;;;1.60;99.90;;;;;;4991176;28;20538;-65
2024/02/29 06:04:59;;;;;;;39.50;16.27;;;1.70;99.90;;;;;;4992176;28;20532;-65
2024/02/29 06:07:26;;;;;;;38.50;15.00;;;1.60;99.90;;;;;;4992308;28;20482;-65
2024/02/29 06:09:53;;;;;;;32.63;16.63;;;1.60;99.90;;;;;;4991361;28;20510;-65
2024/02/29 06:12:20;;;;;;;35.73;15.97;;;1.60;99.90;;;;;;4992145;28;20541;-65
2024/02/29 06:14:47;;;;;;;36.33;15.13;;;1.60;99.90;;;;;;4992131;28;20470;-65
2024/02/29 06:17:16;;;;;;;35.23;14.40;;;1.60;99.90;;;;;;4992767;28;20506;-66
2024/02/29 06:19:42;;;;;;;40.90;15.73;;;2.20;99.90;;;;;;4991977;28;20490;-65
2024/02/29 06:22:11;;;;;;;39.13;16.07;;;1.60;99.90;;;;;;4991792;28;20542;-65
2024/02/29 06:24:38;;;;;;;32.70;15.40;;;1.60;99.90;;;;;;4992278;28;20451;-65
2024/02/29 06:27:05;;;;;;;41.60;16.50;;;1.70;99.90;;;;;;4992087;28;20871;-64
2024/02/29 06:29:32;;;;;;;32.40;14.50;;;1.70;99.90;;;;;;4992275;28;20522;-64
2024/02/29 06:31:59;;;;;;;39.70;14.77;;;1.70;99.90;;;;;;4991939;28;20896;-66
2024/02/29 06:34:25;;;;;;;41.47;15.53;;;2.00;99.90;;;;;;4992178;28;20447;-65
2024/02/29 06:36:54;;;;;;;32.77;16.30;;;1.90;99.90;;;;;;4989600;28;20558;-65
2024/02/29 06:39:22;;;;;;;32.30;14.63;;;1.90;99.90;;;;;;4985659;28;20813;-65
2024/02/29 06:41:49;;;;;;;30.87;14.10;;;2.00;99.90;;;;;;4991899;28;20536;-65
2024/02/29 06:44:16;;;;;;;26.43;11.73;;;2.00;99.90;;;;;;4992164;28;20444;-65
2024/02/29 06:46:43;;;;;;;36.83;16.87;;;2.00;99.90;;;;;;4991473;28;20444;-65
2024/02/29 06:49:10;;;;;;;31.70;15.27;;;2.20;99.90;;;;;;4991720;28;20480;-65
2024/02/29 06:51:37;;;;;;;27.67;12.63;;;2.00;99.90;;;;;;4987211;28;20559;-65
2024/02/29 06:54:05;;;;;;;42.70;16.67;;;2.00;99.90;;;;;;4987713;28;20490;-65
2024/02/29 06:56:33;;;;;;;31.20;14.00;;;2.00;99.90;;;;;;4991461;28;20450;-65
2024/02/29 06:59:00;;;;;;;30.13;14.20;;;2.10;99.90;;;;;;4987598;28;20448;-65
2024/02/29 07:01:31;;;;;;;39.07;15.10;;;2.10;99.90;;;;;;4990616;28;20484;-65
2024/02/29 07:03:58;;;;;;;32.60;14.10;;;2.10;99.90;;;;;;4990672;28;20469;-65
2024/02/29 07:06:25;;;;;;;31.27;14.73;;;2.20;99.90;;;;;;4987731;28;20563;-65
2024/02/29 07:08:52;;;;;;;32.50;16.40;;;2.20;99.90;;;;;;4989101;28;20486;-65
2024/02/29 07:11:19;;;;;;;36.40;14.00;;;2.10;99.90;;;;;;4987123;28;20458;-65
2024/02/29 07:13:48;;;;;;;32.23;14.00;;;2.20;99.90;;;;;;4991148;28;20517;-65
2024/02/29 07:16:15;;;;;;;26.97;13.33;;;2.30;99.90;;;;;;4989752;28;20508;-65
2024/02/29 07:18:42;;;;;;;34.20;14.37;;;2.30;99.90;;;;;;4991328;28;20941;-65
2024/02/29 07:21:09;;;;;;;29.27;13.90;;;2.30;99.90;;;;;;4991096;28;20445;-65
2024/02/29 07:23:37;;;;;;;26.60;13.23;;;2.40;99.90;;;;;;4991326;28;20996;-56
2024/02/29 07:26:04;;;;;;;26.87;11.97;;;2.50;99.90;;;;;;4991225;28;20458;-64
2024/02/29 07:28:32;;;;;;;37.20;13.30;;;2.70;99.90;;;;;;4985095;28;20480;-52
2024/02/29 07:31:01;;;;;;;27.40;13.67;;;3.00;99.90;;;;;;4985240;28;20456;-52
2024/02/29 07:33:30;;;;;;;35.37;14.37;;;3.00;99.90;;;;;;4983183;28;20473;-53
2024/02/29 07:35:57;;;;;;;37.70;15.00;;;3.00;99.90;;;;;;4985190;28;20468;-53
2024/02/29 07:38:24;;;;;;;38.40;14.37;;;3.10;99.90;;;;;;4983593;28;20955;-52
2024/02/29 07:40:50;;;;;;;37.43;15.93;;;3.10;99.90;;;;;;4983900;28;20471;-53
2024/02/29 07:43:17;;;;;;;31.33;15.20;;;3.10;99.90;;;;;;4984455;28;20468;-65
2024/02/29 07:45:44;;;;;;;33.60;16.30;;;3.20;99.90;;;;;;4988471;28;20447;-65
2024/02/29 07:48:13;;;;;;;32.27;14.60;;;3.30;99.90;;;;;;4983093;28;21042;-65
2024/02/29 07:50:40;;;;;;;32.87;15.37;;;3.30;99.90;;;;;;4990616;28;20559;-65
2024/02/29 07:53:07;;;;;;;34.10;15.43;;;3.30;99.90;;;;;;4989014;28;20483;-65
2024/02/29 07:55:33;;;;;;;33.70;14.20;;;3.40;99.90;;;;;;4986551;28;20464;-66
2024/02/29 07:58:00;;;;;;;31.43;14.27;;;3.50;99.90;;;;;;4990709;28;20871;-65
2024/02/29 08:00:27;;;;;;;32.80;15.47;;;3.50;99.90;;;;;;4984357;28;20923;-64
2024/02/29 08:02:54;;;;;;;37.03;15.53;;;3.60;99.90;;;;;;4984972;28;20466;-65
2024/02/29 08:05:24;;;;;;;28.83;15.20;;;3.70;99.90;;;;;;4987493;28;20510;-63
2024/02/29 08:07:51;;;;;;;30.67;13.70;;;3.70;99.90;;;;;;4987905;28;20508;-65
2024/02/29 08:10:18;;;;;;;30.23;15.27;;;3.80;99.90;;;;;;4988165;28;20880;-65
2024/02/29 08:12:45;;;;;;;29.67;14.90;;;3.90;99.90;;;;;;4988077;28;20519;-64
2024/02/29 08:15:13;;;;;;;29.53;15.43;;;4.00;99.90;;;;;;4993705;28;20539;-66
2024/02/29 08:17:40;;;;;;;31.83;16.20;;;4.10;99.90;;;;;;4993963;28;20449;-66
2024/02/29 08:20:08;;;;;;;27.70;12.90;;;4.10;99.90;;;;;;4993931;28;20494;-64
2024/02/29 08:22:39;;;;;;;31.63;15.07;;;4.20;99.90;;;;;;5000403;28;21020;-68
2024/02/29 08:25:08;;;;;;;28.10;14.50;;;4.30;99.90;;;;;;4993864;28;20836;-65
2024/02/29 08:27:38;;;;;;;32.13;14.10;;;4.40;99.90;;;;;;4992436;28;20901;-69
2024/02/29 08:30:06;;;;;;;39.40;15.73;;;4.50;99.90;;;;;;4992427;28;20497;-64
2024/02/29 08:32:36;;;;;;;36.17;15.27;;;4.50;99.90;;;;;;4987146;28;20512;-69
2024/02/29 08:35:04;;;;;;;35.73;14.53;;;4.60;99.90;;;;;;4994308;28;20452;-66
2024/02/29 08:37:31;;;;;;;34.43;15.70;;;4.70;99.90;;;;;;4993237;28;20527;-65
2024/02/29 08:39:59;;;;;;;33.73;17.17;;;4.80;99.90;;;;;;4993867;28;20448;-63
2024/02/29 08:42:26;;;;;;;29.57;13.53;;;4.80;99.90;;;;;;4993585;28;20500;-65
2024/02/29 08:44:53;;;;;;;31.23;16.80;;;5.00;99.90;;;;;;4993747;28;20606;-64
2024/02/29 08:47:20;;;;;;;32.13;14.60;;;5.10;99.90;;;;;;4993887;28;20447;-65
2024/02/29 08:49:48;;;;;;;41.40;17.27;;;5.20;99.90;;;;;;4993072;28;20482;-66
2024/02/29 08:52:15;;;;;;;37.20;15.10;;;5.30;99.90;;;;;;4994131;28;20471;-66
2024/02/29 08:54:42;;;;;;;35.40;16.53;;;5.40;99.90;;;;;;4994548;28;20526;-65
2024/02/29 08:57:10;;;;;;;38.93;15.17;;;5.50;99.90;;;;;;4994711;28;20528;-64
2024/02/29 08:59:37;;;;;;;26.63;14.40;;;5.50;99.90;;;;;;4997161;28;20445;-67
2024/02/29 09:02:05;;;;;;;28.53;13.97;;;5.70;99.90;;;;;;4995774;28;20466;-66
2024/02/29 09:04:32;;;;;;;29.07;15.80;;;5.80;99.90;;;;;;4995735;28;20450;-64
2024/02/29 09:07:00;;;;;;;33.33;15.50;;;5.90;99.90;;;;;;4993931;28;20442;-69
2024/02/29 09:09:29;;;;;;;35.97;14.97;;;6.00;99.90;;;;;;4993413;28;20485;-66
2024/02/29 09:11:56;;;;;;;29.80;14.77;;;6.10;99.90;;;;;;4991915;28;20449;-66
2024/02/29 09:14:24;;;;;;;29.10;14.43;;;6.30;99.90;;;;;;4993311;28;20453;-66
2024/02/29 09:16:51;;;;;;;27.13;14.23;;;6.60;99.90;;;;;;4992875;28;20453;-66
2024/02/29 09:19:18;;;;;;;28.27;14.67;;;6.70;99.90;;;;;;4993325;28;20454;-67
2024/02/29 09:21:45;;;;;;;29.83;14.50;;;6.80;99.90;;;;;;4989204;28;20490;-66
2024/02/29 09:24:12;;;;;;;26.73;13.63;;;7.00;99.90;;;;;;4987282;28;20446;-65
2024/02/29 09:26:41;;;;;;;28.60;14.60;;;7.10;99.90;;;;;;4995503;28;20539;-66
2024/02/29 09:29:08;;;;;;;28.63;12.83;;;7.20;99.90;;;;;;4993404;28;20564;-67
2024/02/29 09:31:37;;;;;;;27.50;13.30;;;7.20;99.90;;;;;;4986906;28;20465;-64
2024/02/29 09:34:04;;;;;;;25.90;13.77;;;7.20;99.90;;;;;;4985042;28;20504;-65
2024/02/29 09:36:31;;;;;;;24.10;12.93;;;7.30;99.90;;;;;;4993395;28;20460;-64
2024/02/29 09:38:58;;;;;;;26.20;12.50;;;7.40;99.90;;;;;;4992157;28;20476;-64
2024/02/29 09:41:34;;;;;;;28.80;14.07;;;7.60;99.90;;;;;;4992358;28;20487;-65
2024/02/29 09:44:03;;;;;;;25.87;11.73;;;7.70;99.90;;;;;;4991454;28;20772;-66
2024/02/29 09:46:30;;;;;;;30.87;14.10;;;8.00;99.90;;;;;;4992424;28;20486;-65
2024/02/29 09:48:59;;;;;;;26.17;13.37;;;8.80;99.90;;;;;;4992482;28;20496;-66
2024/02/29 09:51:26;;;;;;;23.47;12.10;;;9.30;99.90;;;;;;4992827;28;20814;-66
2024/02/29 09:53:54;;;;;;;29.70;13.40;;;10.00;99.90;;;;;;4992166;28;20550;-65
2024/02/29 09:56:23;;;;;;;27.00;14.50;;;10.10;99.90;;;;;;4991255;28;20446;-64
2024/02/29 09:58:51;;;;;;;25.37;13.20;;;10.10;99.90;;;;;;4998845;28;20443;-66
2024/02/29 10:01:18;;;;;;;25.77;13.40;;;10.80;99.90;;;;;;4992473;28;20958;-65
2024/02/29 10:03:46;;;;;;;29.37;13.67;;;12.10;99.90;;;;;;4992090;28;20562;-65
2024/02/29 10:06:14;;;;;;;22.27;13.37;;;13.50;99.90;;;;;;4992429;28;20996;-65
2024/02/29 10:08:41;;;;;;;23.63;13.37;;;14.70;99.90;;;;;;4992118;28;21036;-66
2024/02/29 10:11:08;;;;;;;24.00;13.57;;;15.80;99.90;;;;;;4992135;28;20446;-66
2024/02/29 10:13:40;;;;;;;22.07;13.30;;;16.50;95.90;;;;;;4991387;28;20516;-65
2024/02/29 10:16:11;;;;;;;24.90;14.77;;;16.80;92.20;;;;;;4992042;28;20454;-68
2024/02/29 10:18:38;;;;;;;23.20;14.73;;;16.90;91.30;;;;;;4992366;28;20439;-67
2024/02/29 10:21:10;;;;;;;20.10;13.27;;;17.10;90.10;;;;;;4991850;28;20454;-65
2024/02/29 10:23:38;;;;;;;22.37;12.37;;;17.40;86.80;;;;;;4991662;28;20552;-66
2024/02/29 10:26:06;;;;;;;17.63;13.50;;;17.40;85.00;;;;;;4991889;28;20454;-65
2024/02/29 10:28:33;;;;;;;18.83;12.70;;;17.00;84.50;;;;;;4991932;28;20454;-64
2024/02/29 10:31:01;;;;;;;25.17;13.40;;;17.10;84.50;;;;;;4992116;28;20525;-65
2024/02/29 10:33:28;;;;;;;23.13;13.53;;;17.30;83.90;;;;;;4991091;28;20476;-65
2024/02/29 10:35:55;;;;;;;19.20;13.70;;;17.50;83.10;;;;;;4991458;28;20473;-65
2024/02/29 10:38:23;;;;;;;22.23;13.50;;;17.40;81.40;;;;;;4990892;28;20992;-66
2024/02/29 10:40:53;;;;;;;21.10;12.50;;;17.20;81.90;;;;;;4991809;28;20733;-67
2024/02/29 10:43:21;;;;;;;21.80;13.13;;;17.20;82.90;;;;;;4991345;28;20819;-64
2024/02/29 10:45:54;;;;;;;23.77;14.67;;;17.40;81.10;;;;;;4991572;28;20815;-65
2024/02/29 10:48:30;;;;;;;19.37;12.20;;;17.40;81.50;;;;;;4991457;28;20453;-65
2024/02/29 10:51:01;;;;;;;22.97;13.17;;;17.40;80.70;;;;;;4991289;28;21001;-66
2024/02/29 10:53:40;;;;;;;19.37;12.87;;;17.60;81.30;;;;;;5020843;23;20543;-64
2024/02/29 10:56:20;;;;;;;19.40;12.77;;;17.50;81.20;;;;;;5010879;28;20477;-63
2024/02/29 10:58:51;;;;;;;23.53;14.87;;;17.60;81.20;;;;;;5026107;28;20470;-63
2024/02/29 11:01:19;;;;;;;21.90;13.00;;;17.50;80.10;;;;;;5015266;28;20429;-64
2024/02/29 11:03:46;;;;;;;25.60;15.17;;;16.90;81.20;;;;;;5014139;28;20508;-64
2024/02/29 11:06:14;;;;;;;27.40;14.57;;;16.60;83.00;;;;;;5019397;28;20496;-65
2024/02/29 11:08:41;;;;;;;22.53;14.53;;;16.40;84.60;;;;;;5010884;28;20875;-67
2024/02/29 11:11:13;;;;;;;22.77;13.57;;;16.20;85.40;;;;;;5010858;28;20496;-64
2024/02/29 11:13:40;;;;;;;23.67;15.07;;;16.20;86.40;;;;;;5010747;28;20976;-64
2024/02/29 11:16:11;;;;;;;25.90;13.60;;;16.00;86.40;;;;;;5010862;28;20452;-64
2024/02/29 11:18:39;;;;;;;24.77;15.17;;;15.60;88.00;;;;;;5010906;28;20481;-63
2024/02/29 11:21:09;;;;;;;24.70;13.30;;;15.40;89.60;;;;;;5010622;28;20481;-66
2024/02/29 11:23:36;;;;;;;23.37;14.00;;;15.10;90.50;;;;;;5010512;28;20540;-66
2024/02/29 11:26:08;;;;;;;22.10;12.70;;;14.80;91.40;;;;;;5010756;28;20853;-65
2024/02/29 11:28:40;;;;;;;21.30;13.43;;;14.60;92.20;;;;;;5010153;28;20466;-65
2024/02/29 11:31:17;;;;;;;21.17;12.97;;;14.30;93.00;;;;;;5009541;28;20842;-64
2024/02/29 11:33:46;;;;;;;21.93;13.30;;;13.80;94.70;;;;;;5010288;28;20472;-64
2024/02/29 11:36:13;;;;;;;23.30;13.67;;;13.50;96.00;;;;;;5014072;28;20472;-65
2024/02/29 11:38:40;;;;;;;24.13;14.10;;;13.20;96.90;;;;;;5014320;28;20465;-64
2024/02/29 11:41:18;;;;;;;31.20;15.10;;;12.90;98.90;;;;;;5018318;28;21261;-64
2024/02/29 11:43:48;;;;;;;22.97;12.57;;;12.50;99.90;;;;;;5014323;28;20457;-63
2024/02/29 11:46:16;;;;;;;21.90;13.47;;;12.30;99.90;;;;;;5014868;28;20999;-63
2024/02/29 11:48:44;;;;;;;22.47;12.43;;;12.30;99.90;;;;;;5014218;28;20863;-64
2024/02/29 11:51:11;;;;;;;23.40;13.57;;;12.20;99.90;;;;;;5022159;28;20477;-63
2024/02/29 11:53:39;;;;;;;24.50;14.07;;;12.10;99.90;;;;;;5022124;28;20829;-63
2024/02/29 11:56:07;;;;;;;22.23;13.10;;;12.10;99.90;;;;;;5014395;28;20893;-66
2024/02/29 11:58:34;;;;;;;21.70;13.00;;;12.10;99.90;;;;;;5014584;28;20445;-65
2024/02/29 12:01:03;;;;;;;23.77;13.50;;;12.00;99.90;;;;;;5014259;28;20443;-63
2024/02/29 12:03:30;;;;;;;21.93;12.87;;;11.90;99.90;;;;;;5013872;28;20860;-64
2024/02/29 12:05:58;;;;;;;21.83;12.87;;;11.70;99.90;;;;;;5014389;28;20453;-64
2024/02/29 12:08:27;;;;;;;22.90;14.03;;;11.60;99.90;;;;;;5014616;28;20503;-63
2024/02/29 12:10:58;;;;;;;23.83;13.27;;;11.50;99.90;;;;;;5014329;28;20489;-65
2024/02/29 12:13:26;;;;;;;24.53;12.90;;;11.40;99.90;;;;;;5014996;28;20648;-66
2024/02/29 12:15:54;;;;;;;23.40;13.90;;;11.40;99.90;;;;;;5014686;28;20441;-65
2024/02/29 12:18:23;;;;;;;25.43;14.03;;;11.30;99.90;;;;;;5014599;28;20993;-64
2024/02/29 12:20:53;;;;;;;25.67;14.57;;;11.30;99.90;;;;;;5014070;28;20537;-66
2024/02/29 12:23:20;;;;;;;26.40;12.63;;;11.10;99.90;;;;;;5013797;28;20544;-65
2024/02/29 12:25:47;;;;;;;22.03;12.37;;;11.10;99.90;;;;;;5013735;28;20524;-65
2024/02/29 12:28:14;;;;;;;29.27;14.40;;;11.20;99.90;;;;;;5017382;28;20536;-65
2024/02/29 12:30:41;;;;;;;23.30;13.13;;;11.30;99.90;;;;;;5025074;28;20534;-64
2024/02/29 12:33:12;;;;;;;22.50;12.50;;;11.40;99.90;;;;;;5010758;28;20481;-67
2024/02/29 12:35:43;;;;;;;22.77;13.93;;;11.40;99.90;;;;;;5013307;28;20446;-65
2024/02/29 12:38:14;;;;;;;28.13;13.67;;;11.50;99.90;;;;;;5013655;28;20972;-65
2024/02/29 12:40:45;;;;;;;22.70;13.20;;;11.60;99.90;;;;;;5012266;28;20445;-66